createdAt,value
2018-09-12T00:00:17.195Z,68.01
2018-09-12T00:02:29.372Z,67.46
2018-09-12T00:04:41.594Z,68.33
2018-09-12T00:06:53.853Z,68.47
2018-09-12T00:09:07.923Z,68.53
2018-09-12T00:11:20.173Z,67.96
2018-09-12T00:13:32.399Z,68.16
2018-09-12T00:15:44.603Z,68.81
2018-09-12T00:17:56.802Z,68.58
2018-09-12T00:20:09.003Z,68.85
2018-09-12T00:22:21.216Z,68.41
2018-09-12T00:24:33.534Z,68.13
2018-09-12T00:26:45.702Z,68.05
2018-09-12T00:28:57.911Z,68.66
2018-09-12T00:31:10.095Z,68.93
2018-09-12T00:33:22.276Z,68.93
2018-09-12T00:35:34.468Z,68.28
2018-09-12T00:37:46.646Z,68.31
2018-09-12T00:39:58.839Z,68.32
2018-09-12T00:42:12.603Z,69.29
2018-09-12T00:44:24.803Z,69.14
2018-09-12T00:46:36.979Z,68.50
2018-09-12T00:48:49.170Z,69.63
2018-09-12T00:51:01.374Z,69.83
2018-09-12T00:53:13.574Z,70.07
2018-09-12T00:55:25.788Z,69.46
2018-09-12T00:57:37.987Z,70.10
2018-09-12T00:59:50.136Z,70.03
2018-09-12T01:02:02.393Z,70.42
2018-09-12T01:04:14.627Z,70.04
2018-09-12T01:06:26.821Z,70.51
2018-09-12T01:08:39.111Z,70.77
2018-09-12T01:10:51.312Z,70.74
2018-09-12T01:13:03.548Z,70.83
2018-09-12T01:15:16.465Z,69.98
2018-09-12T01:17:28.657Z,70.24
2018-09-12T01:19:40.850Z,69.88
2018-09-12T01:21:53.039Z,70.05
2018-09-12T01:24:05.279Z,69.87
2018-09-12T01:26:17.475Z,70.21
2018-09-12T01:28:29.671Z,70.18
2018-09-12T01:30:41.863Z,70.62
2018-09-12T01:32:55.669Z,70.95
2018-09-12T01:35:07.846Z,71.37
2018-09-12T01:37:20.046Z,71.64
2018-09-12T01:39:32.266Z,71.46
2018-09-12T01:41:44.487Z,71.33
2018-09-12T01:43:56.710Z,71.30
2018-09-12T01:46:08.943Z,71.80
2018-09-12T01:48:21.116Z,71.79
2018-09-12T01:50:33.324Z,71.24
2018-09-12T01:52:46.184Z,71.96
2018-09-12T01:54:58.394Z,71.79
2018-09-12T01:57:10.619Z,71.31
2018-09-12T01:59:22.823Z,71.99
2018-09-12T02:01:35.011Z,71.98
2018-09-12T02:03:47.254Z,71.25
2018-09-12T02:05:59.489Z,70.98
2018-09-12T02:08:11.699Z,71.23
2018-09-12T02:10:23.948Z,71.45
2018-09-12T02:12:36.200Z,71.33
2018-09-12T02:14:48.378Z,71.51
2018-09-12T02:17:00.629Z,72.37
2018-09-12T02:19:12.833Z,72.66
2018-09-12T02:21:25.059Z,73.08
2018-09-12T02:23:37.307Z,72.25
2018-09-12T02:25:49.523Z,72.47
2018-09-12T02:28:01.705Z,72.46
2018-09-12T02:30:13.948Z,72.87
2018-09-12T02:32:26.179Z,72.05
2018-09-12T02:34:38.370Z,72.00
2018-09-12T02:36:50.647Z,72.03
2018-09-12T02:39:04.806Z,70.88
2018-09-12T02:41:17.066Z,71.03
2018-09-12T02:43:29.306Z,70.86
2018-09-12T02:45:41.491Z,71.04
2018-09-12T02:47:53.683Z,71.25
2018-09-12T02:50:08.041Z,71.56
2018-09-12T02:52:20.264Z,70.51
2018-09-12T02:54:32.435Z,70.31
2018-09-12T02:56:44.631Z,70.39
2018-09-12T02:58:56.839Z,70.58
2018-09-12T03:01:09.286Z,70.98
2018-09-12T03:03:21.595Z,70.62
2018-09-12T03:05:33.808Z,70.79
2018-09-12T03:07:46.094Z,71.16
2018-09-12T03:09:58.244Z,70.56
2018-09-12T03:12:10.468Z,69.21
2018-09-12T03:14:22.694Z,68.86
2018-09-12T03:16:34.906Z,68.61
2018-09-12T03:18:47.692Z,69.08
2018-09-12T03:21:00.117Z,68.60
2018-09-12T03:23:12.122Z,68.33
2018-09-12T03:25:24.315Z,68.17
2018-09-12T03:27:36.510Z,67.78
2018-09-12T03:29:48.715Z,68.32
2018-09-12T03:32:01.331Z,67.88
2018-09-12T03:34:13.515Z,67.86
2018-09-12T03:36:25.710Z,68.47
2018-09-12T03:38:37.900Z,68.30
2018-09-12T03:40:50.109Z,67.49
2018-09-12T03:43:02.390Z,68.14
2018-09-12T03:45:14.578Z,68.35
2018-09-12T03:47:26.739Z,67.81
2018-09-12T03:49:38.970Z,67.72
2018-09-12T03:51:51.179Z,68.52
2018-09-12T03:54:03.375Z,67.71
2018-09-12T03:56:15.557Z,67.57
2018-09-12T03:58:27.739Z,67.80
2018-09-12T04:00:39.958Z,67.28
2018-09-12T04:02:52.298Z,67.70
2018-09-12T04:05:05.026Z,67.61
2018-09-12T04:07:17.224Z,67.43
2018-09-12T04:09:29.431Z,68.30
2018-09-12T04:11:41.640Z,67.92
2018-09-12T04:13:53.874Z,67.57
2018-09-12T04:16:06.080Z,67.39
2018-09-12T04:18:18.383Z,67.71
2018-09-12T04:20:30.563Z,68.49
2018-09-12T04:22:42.787Z,67.63
2018-09-12T04:24:54.987Z,67.87
2018-09-12T04:27:07.491Z,68.66
2018-09-12T04:29:19.746Z,68.50
2018-09-12T04:31:32.013Z,69.03
2018-09-12T04:33:44.233Z,68.79
2018-09-12T04:35:56.436Z,69.03
2018-09-12T04:38:08.649Z,69.14
2018-09-12T04:40:20.841Z,69.57
2018-09-12T04:42:33.072Z,69.69
2018-09-12T04:44:45.297Z,68.73
2018-09-12T04:46:57.577Z,70.42
2018-09-12T04:49:09.868Z,70.27
2018-09-12T04:51:22.158Z,70.55
2018-09-12T04:53:34.385Z,70.60
2018-09-12T04:55:46.598Z,71.39
2018-09-12T04:57:58.882Z,71.67
2018-09-12T05:00:11.199Z,71.94
2018-09-12T05:02:23.436Z,72.68
2018-09-12T05:04:35.651Z,72.25
2018-09-12T05:06:47.871Z,72.55
2018-09-12T05:09:00.087Z,73.51
2018-09-12T05:11:12.291Z,72.43
2018-09-12T05:13:24.487Z,73.18
2018-09-12T05:15:36.697Z,74.59
2018-09-12T05:17:48.884Z,74.65
2018-09-12T05:20:01.109Z,72.96
2018-09-12T05:22:13.347Z,72.93
2018-09-12T05:24:25.600Z,73.96
2018-09-12T05:26:37.905Z,73.07
2018-09-12T05:28:50.226Z,73.46
2018-09-12T05:31:02.510Z,73.57
2018-09-12T05:33:14.736Z,73.92
2018-09-12T05:35:26.948Z,73.39
2018-09-12T05:37:39.199Z,73.17
2018-09-12T05:39:51.419Z,71.85
2018-09-12T05:42:03.678Z,71.05
2018-09-12T05:44:15.855Z,71.14
2018-09-12T05:46:28.095Z,69.94
2018-09-12T05:48:40.334Z,70.60
2018-09-12T05:50:52.517Z,70.79
2018-09-12T05:53:04.783Z,70.64
2018-09-12T05:55:16.971Z,70.96
2018-09-12T05:57:29.194Z,70.36
2018-09-12T05:59:41.368Z,69.62
2018-09-12T06:01:53.595Z,69.54
2018-09-12T06:04:05.858Z,68.88
2018-09-12T06:06:18.256Z,68.21
2018-09-12T06:08:30.544Z,67.60
2018-09-12T06:10:42.725Z,66.52
2018-09-12T06:12:55.007Z,66.62
2018-09-12T06:15:07.255Z,64.65
2018-09-12T06:17:19.556Z,64.08
2018-09-12T06:19:31.835Z,62.39
2018-09-12T06:21:44.065Z,61.67
2018-09-12T06:23:56.344Z,61.26
2018-09-12T06:26:08.683Z,60.44
2018-09-12T06:28:20.936Z,58.40
2018-09-12T06:30:33.175Z,56.95
2018-09-12T06:32:45.365Z,57.08
2018-09-12T06:34:57.585Z,55.73
2018-09-12T06:37:09.859Z,55.73
2018-09-12T06:39:22.073Z,55.33
2018-09-12T06:41:34.272Z,54.66
2018-09-12T06:43:46.553Z,53.10
2018-09-12T06:45:58.842Z,53.14
2018-09-12T06:48:11.056Z,52.28
2018-09-12T06:50:23.249Z,52.45
2018-09-12T06:52:35.462Z,51.13
2018-09-12T06:54:47.880Z,51.32
2018-09-12T06:57:00.152Z,50.68
2018-09-12T06:59:12.335Z,49.72
2018-09-12T07:01:24.542Z,48.51
2018-09-12T07:03:36.874Z,47.91
2018-09-12T07:05:49.160Z,47.34
2018-09-12T07:08:01.443Z,47.62
2018-09-12T07:10:13.670Z,47.32
2018-09-12T07:12:25.941Z,47.95
2018-09-12T07:14:38.144Z,46.70
2018-09-12T07:16:50.342Z,46.22
2018-09-12T07:19:02.581Z,46.20
2018-09-12T07:21:14.804Z,46.30
2018-09-12T07:23:26.999Z,46.59
2018-09-12T07:25:39.207Z,46.45
2018-09-12T07:27:51.407Z,45.43
2018-09-12T07:30:03.784Z,42.82
2018-09-12T07:32:15.995Z,44.64
2018-09-12T07:34:28.202Z,42.98
2018-09-12T07:36:40.451Z,43.95
2018-09-12T07:38:52.682Z,44.66
2018-09-12T07:41:04.904Z,43.49
2018-09-12T07:43:17.111Z,42.54
2018-09-12T07:45:29.399Z,41.41
2018-09-12T07:47:41.604Z,41.91
2018-09-12T07:49:54.366Z,40.41
2018-09-12T07:52:06.588Z,41.08
2018-09-12T07:54:18.807Z,39.43
2018-09-12T07:56:31.080Z,37.34
2018-09-12T07:58:43.235Z,38.41
2018-09-12T08:00:55.443Z,38.40
2018-09-12T08:03:07.718Z,38.22
2018-09-12T08:05:19.956Z,36.04
2018-09-12T08:07:32.267Z,37.46
2018-09-12T08:09:44.474Z,37.38
2018-09-12T08:11:56.639Z,38.30
2018-09-12T08:14:08.912Z,36.83
2018-09-12T08:16:21.103Z,37.27
2018-09-12T08:18:33.341Z,35.20
2018-09-12T08:20:45.555Z,34.82
2018-09-12T08:22:57.845Z,36.27
2018-09-12T08:25:10.055Z,36.19
2018-09-12T08:27:22.216Z,35.03
2018-09-12T08:29:34.467Z,34.08
2018-09-12T08:31:46.656Z,36.45
2018-09-12T08:33:58.930Z,36.83
2018-09-12T08:36:11.113Z,36.46
2018-09-12T08:38:23.298Z,36.72
2018-09-12T08:40:35.540Z,35.82
2018-09-12T08:42:47.735Z,35.65
2018-09-12T08:44:59.960Z,35.31
2018-09-12T08:47:12.191Z,36.22
2018-09-12T08:49:24.460Z,34.42
2018-09-12T08:51:36.692Z,34.53
2018-09-12T08:53:48.925Z,35.24
2018-09-12T08:56:01.123Z,35.80
2018-09-12T08:58:13.331Z,34.48
2018-09-12T09:00:30.119Z,35.72
2018-09-12T09:02:42.404Z,34.35
2018-09-12T09:04:54.618Z,33.93
2018-09-12T09:07:06.840Z,33.96
2018-09-12T09:09:19.099Z,34.45
2018-09-12T09:11:31.335Z,34.23
2018-09-12T09:13:43.590Z,33.01
2018-09-12T09:15:55.819Z,34.03
2018-09-12T09:18:08.036Z,33.27
2018-09-12T09:20:20.235Z,32.53
2018-09-12T09:22:32.409Z,33.07
2018-09-12T09:24:44.613Z,32.40
2018-09-12T09:26:56.823Z,32.90
2018-09-12T09:29:09.011Z,32.75
2018-09-12T09:31:21.221Z,33.49
2018-09-12T09:33:33.407Z,32.35
2018-09-12T09:35:45.667Z,31.96
2018-09-12T09:37:57.826Z,31.47
2018-09-12T09:40:10.694Z,32.37
2018-09-12T09:42:22.948Z,31.40
2018-09-12T09:44:35.163Z,31.16
2018-09-12T09:46:47.463Z,31.16
2018-09-12T09:48:59.666Z,32.38
2018-09-12T09:51:11.868Z,31.75
2018-09-12T09:53:24.128Z,31.75
2018-09-12T09:55:36.348Z,32.11
2018-09-12T09:57:48.580Z,31.32
2018-09-12T10:00:00.777Z,31.69
2018-09-12T10:02:23.651Z,31.56
2018-09-12T10:04:41.663Z,30.62
2018-09-12T10:06:58.484Z,30.41
2018-09-12T10:09:16.337Z,30.94
2018-09-12T10:11:28.570Z,32.75
2018-09-12T10:13:40.811Z,32.47
2018-09-12T10:15:53.039Z,30.26
2018-09-12T10:18:05.276Z,30.44
2018-09-12T10:20:17.526Z,31.13
2018-09-12T10:22:30.210Z,29.95
2018-09-12T10:24:42.455Z,30.63
2018-09-12T10:26:54.715Z,31.37
2018-09-12T10:29:06.946Z,30.57
2018-09-12T10:31:19.224Z,29.31
2018-09-12T10:33:31.431Z,29.20
2018-09-12T10:35:43.705Z,31.35
2018-09-12T10:37:55.939Z,30.21
2018-09-12T10:40:08.221Z,29.59
2018-09-12T10:42:20.451Z,30.06
2018-09-12T10:44:32.693Z,30.58
2018-09-12T10:46:44.950Z,30.78
2018-09-12T10:48:57.207Z,30.39
2018-09-12T10:51:09.431Z,29.90
2018-09-12T10:53:21.694Z,29.74
2018-09-12T10:55:33.983Z,31.21
2018-09-12T10:57:46.186Z,29.89
2018-09-12T10:59:58.427Z,30.11
2018-09-12T11:02:10.628Z,29.94
2018-09-12T11:04:22.902Z,30.36
2018-09-12T11:06:35.165Z,29.00
2018-09-12T11:08:47.342Z,29.48
2018-09-12T11:10:59.572Z,30.15
2018-09-12T11:13:11.819Z,31.48
2018-09-12T11:15:24.061Z,31.47
2018-09-12T11:17:36.264Z,30.33
2018-09-12T11:19:48.527Z,30.80
2018-09-12T11:22:00.775Z,30.75
2018-09-12T11:24:13.012Z,31.17
2018-09-12T11:26:25.223Z,31.92
2018-09-12T11:28:37.599Z,31.45
2018-09-12T11:30:50.122Z,32.08
2018-09-12T11:33:02.378Z,30.71
2018-09-12T11:35:14.684Z,31.22
2018-09-12T11:37:26.903Z,32.48
2018-09-12T11:39:39.111Z,31.55
2018-09-12T11:41:51.359Z,32.05
2018-09-12T11:44:04.482Z,31.73
2018-09-12T11:46:16.688Z,32.99
2018-09-12T11:48:29.154Z,32.05
2018-09-12T11:50:41.405Z,31.81
2018-09-12T11:52:53.693Z,31.00
2018-09-12T11:55:05.972Z,32.51
2018-09-12T11:57:18.175Z,32.75
2018-09-12T11:59:30.419Z,32.51
2018-09-12T12:01:42.733Z,30.88
2018-09-12T12:03:55.023Z,32.50
2018-09-12T12:06:07.321Z,31.70
2018-09-12T12:08:19.584Z,32.83
2018-09-12T12:10:31.834Z,31.36
2018-09-12T12:12:44.076Z,32.62
2018-09-12T12:14:56.324Z,31.71
2018-09-12T12:17:08.556Z,31.24
2018-09-12T12:19:20.830Z,30.48
2018-09-12T12:21:33.079Z,31.66
2018-09-12T12:23:45.283Z,31.65
2018-09-12T12:25:57.569Z,31.45
2018-09-12T12:28:09.977Z,31.46
2018-09-12T12:30:22.590Z,31.83
2018-09-12T12:32:34.876Z,32.36
2018-09-12T12:34:47.111Z,31.32
2018-09-12T12:36:59.350Z,31.97
2018-09-12T12:39:11.955Z,32.07
2018-09-12T12:41:24.261Z,31.88
2018-09-12T12:43:36.521Z,31.59
2018-09-12T12:45:48.771Z,31.88
2018-09-12T12:48:01.005Z,31.24
2018-09-12T12:50:13.261Z,31.36
2018-09-12T12:52:25.503Z,31.35
2018-09-12T12:54:37.818Z,31.68
2018-09-12T12:56:50.079Z,30.10
2018-09-12T12:59:02.358Z,31.08
2018-09-12T13:01:14.606Z,31.15
2018-09-12T13:03:26.832Z,30.27
2018-09-12T13:05:39.116Z,31.22
2018-09-12T13:07:51.350Z,30.41
2018-09-12T13:10:03.668Z,30.54
2018-09-12T13:12:15.990Z,31.12
2018-09-12T13:14:28.287Z,30.97
2018-09-12T13:16:40.491Z,31.35
2018-09-12T13:18:52.745Z,29.32
2018-09-12T13:21:05.044Z,31.66
2018-09-12T13:23:17.259Z,30.68
2018-09-12T13:25:29.478Z,30.10
2018-09-12T13:27:41.778Z,30.67
2018-09-12T13:29:53.958Z,31.77
2018-09-12T13:32:06.227Z,32.14
2018-09-12T13:34:18.527Z,31.63
2018-09-12T13:36:30.703Z,30.90
2018-09-12T13:38:43.036Z,30.17
2018-09-12T13:40:55.271Z,30.40
2018-09-12T13:43:07.546Z,29.75
2018-09-12T13:45:19.766Z,29.08
2018-09-12T13:47:32.020Z,29.45
2018-09-12T13:49:44.320Z,30.02
2018-09-12T13:51:56.559Z,30.60
2018-09-12T13:54:08.811Z,29.82
2018-09-12T13:56:21.107Z,30.58
2018-09-12T13:58:33.370Z,30.45
2018-09-12T14:00:46.124Z,29.78
2018-09-12T14:02:59.285Z,30.51
2018-09-12T14:05:11.562Z,30.54
2018-09-12T14:07:23.762Z,29.48
2018-09-12T14:09:35.964Z,30.28
2018-09-12T14:11:48.203Z,30.46
2018-09-12T14:14:00.555Z,31.01
2018-09-12T14:16:12.831Z,31.36
2018-09-12T14:18:25.043Z,30.55
2018-09-12T14:20:37.367Z,30.51
2018-09-12T14:22:49.706Z,30.42
2018-09-12T14:25:01.920Z,29.97
2018-09-12T14:27:14.152Z,31.42
2018-09-12T14:29:26.354Z,30.23
2018-09-12T14:31:38.588Z,30.75
2018-09-12T14:33:50.915Z,32.55
2018-09-12T14:36:03.179Z,31.09
2018-09-12T14:38:15.440Z,31.44
2018-09-12T14:40:27.710Z,31.32
2018-09-12T14:42:39.969Z,32.41
2018-09-12T14:44:52.295Z,31.86
2018-09-12T14:47:04.611Z,32.36
2018-09-12T14:49:16.886Z,30.87
2018-09-12T14:51:29.112Z,31.59
2018-09-12T14:53:41.372Z,31.10
2018-09-12T14:55:53.601Z,31.75
2018-09-12T14:58:05.910Z,31.87
2018-09-12T15:00:23.871Z,31.68
2018-09-12T15:02:36.111Z,31.72
2018-09-12T15:04:48.410Z,31.30
2018-09-12T15:07:00.620Z,32.20
2018-09-12T15:09:12.886Z,32.40
2018-09-12T15:11:25.235Z,32.45
2018-09-12T15:13:37.480Z,32.44
2018-09-12T15:15:49.751Z,33.22
2018-09-12T15:18:02.032Z,31.14
2018-09-12T15:20:15.460Z,33.34
2018-09-12T15:22:27.772Z,33.32
2018-09-12T15:24:40.046Z,33.00
2018-09-12T15:26:52.300Z,33.11
2018-09-12T15:29:04.597Z,33.93
2018-09-12T15:31:16.878Z,34.52
2018-09-12T15:33:29.148Z,34.20
2018-09-12T15:35:41.346Z,34.35
2018-09-12T15:37:53.596Z,34.44
2018-09-12T15:40:05.911Z,34.86
2018-09-12T15:42:18.162Z,34.07
2018-09-12T15:44:30.463Z,33.90
2018-09-12T15:46:42.775Z,34.13
2018-09-12T15:48:55.371Z,34.70
2018-09-12T15:51:07.607Z,33.41
2018-09-12T15:53:19.841Z,34.41
2018-09-12T15:55:32.149Z,33.96
2018-09-12T15:57:44.398Z,33.70
2018-09-12T15:59:56.874Z,33.95
2018-09-12T16:02:09.173Z,33.39
2018-09-12T16:04:21.563Z,33.70
2018-09-12T16:06:33.700Z,34.44
2018-09-12T16:08:45.985Z,34.96
2018-09-12T16:10:58.254Z,34.32
2018-09-12T16:13:10.655Z,34.15
2018-09-12T16:15:22.989Z,34.56
2018-09-12T16:17:35.214Z,34.36
2018-09-12T16:19:47.475Z,34.90
2018-09-12T16:21:59.692Z,35.55
2018-09-12T16:24:11.935Z,35.37
2018-09-12T16:26:24.165Z,35.22
2018-09-12T16:28:36.410Z,34.86
2018-09-12T16:30:48.747Z,35.41
2018-09-12T16:33:01.040Z,35.52
2018-09-12T16:35:13.313Z,35.96
2018-09-12T16:37:25.624Z,35.61
2018-09-12T16:39:37.879Z,36.07
2018-09-12T16:41:50.132Z,36.43
2018-09-12T16:44:02.322Z,36.11
2018-09-12T16:46:14.622Z,35.92
2018-09-12T16:48:26.907Z,36.13
2018-09-12T16:50:39.221Z,35.92
2018-09-12T16:52:51.482Z,36.36
2018-09-12T16:55:03.790Z,36.38
2018-09-12T16:57:16.038Z,36.91
2018-09-12T16:59:28.381Z,36.96
2018-09-12T17:01:40.629Z,36.72
2018-09-12T17:03:52.935Z,36.67
2018-09-12T17:06:05.173Z,36.90
2018-09-12T17:08:17.454Z,36.83
2018-09-12T17:10:29.703Z,36.74
2018-09-12T17:12:41.952Z,36.75
2018-09-12T17:14:54.188Z,37.20
2018-09-12T17:17:06.468Z,37.11
2018-09-12T17:19:18.708Z,37.33
2018-09-12T17:21:31.765Z,37.39
2018-09-12T17:23:44.083Z,37.88
2018-09-12T17:25:56.291Z,37.50
2018-09-12T17:28:08.684Z,37.40
2018-09-12T17:30:21.005Z,37.57
2018-09-12T17:32:33.353Z,38.18
2018-09-12T17:34:45.536Z,39.36
2018-09-12T17:36:57.811Z,40.10
2018-09-12T17:39:10.414Z,40.48
2018-09-12T17:41:22.687Z,41.69
2018-09-12T17:43:35.499Z,42.64
2018-09-12T17:45:47.805Z,42.77
2018-09-12T17:48:00.139Z,42.73
2018-09-12T17:50:12.463Z,42.71
2018-09-12T17:52:24.700Z,44.17
2018-09-12T17:54:37.019Z,43.78
2018-09-12T17:56:49.343Z,44.21
2018-09-12T17:59:01.558Z,44.77
2018-09-12T18:01:13.928Z,45.33
2018-09-12T18:03:26.164Z,46.38
2018-09-12T18:05:38.515Z,46.66
2018-09-12T18:07:50.761Z,46.74
2018-09-12T18:10:03.104Z,46.39
2018-09-12T18:12:15.362Z,46.37
2018-09-12T18:14:27.576Z,46.55
2018-09-12T18:16:39.936Z,46.06
2018-09-12T18:18:52.224Z,46.83
2018-09-12T18:21:04.538Z,47.51
2018-09-12T18:23:16.758Z,47.42
2018-09-12T18:25:29.014Z,47.50
2018-09-12T18:27:41.268Z,47.61
2018-09-12T18:29:53.638Z,48.33
2018-09-12T18:32:05.970Z,49.13
2018-09-12T18:34:18.196Z,48.43
2018-09-12T18:36:30.465Z,48.10
2018-09-12T18:38:42.736Z,48.39
2018-09-12T18:40:55.089Z,49.06
2018-09-12T18:43:07.536Z,49.33
2018-09-12T18:45:19.861Z,50.47
2018-09-12T18:47:32.056Z,50.73
2018-09-12T18:49:44.272Z,50.47
2018-09-12T18:51:56.577Z,50.06
2018-09-12T18:54:08.903Z,50.52
2018-09-12T18:56:21.112Z,50.77
2018-09-12T18:58:33.358Z,51.62
2018-09-12T19:00:45.599Z,51.46
2018-09-12T19:02:58.657Z,51.15
2018-09-12T19:05:10.916Z,52.22
2018-09-12T19:07:23.197Z,52.22
2018-09-12T19:09:35.391Z,51.50
2018-09-12T19:11:47.691Z,52.90
2018-09-12T19:13:59.968Z,52.75
2018-09-12T19:16:12.514Z,54.36
2018-09-12T19:18:25.014Z,54.03
2018-09-12T19:20:37.099Z,54.00
2018-09-12T19:22:49.311Z,53.31
2018-09-12T19:25:01.555Z,53.67
2018-09-12T19:27:13.824Z,53.73
2018-09-12T19:29:26.063Z,53.72
2018-09-12T19:31:38.315Z,53.15
2018-09-12T19:33:50.625Z,54.07
2018-09-12T19:36:02.954Z,53.60
2018-09-12T19:38:15.067Z,54.07
2018-09-12T19:40:27.323Z,53.63
2018-09-12T19:42:39.566Z,54.80
2018-09-12T19:44:51.792Z,54.26
2018-09-12T19:47:04.041Z,54.36
2018-09-12T19:49:16.282Z,55.01
2018-09-12T19:51:28.495Z,54.81
2018-09-12T19:53:40.773Z,54.95
2018-09-12T19:55:52.994Z,55.61
2018-09-12T19:58:05.237Z,56.05
2018-09-12T20:00:18.690Z,55.91
2018-09-12T20:02:33.090Z,55.68
2018-09-12T20:04:45.366Z,55.64
2018-09-12T20:06:57.666Z,55.11
2018-09-12T20:09:11.019Z,55.98
2018-09-12T20:11:23.457Z,55.18
2018-09-12T20:13:35.700Z,55.00
2018-09-12T20:15:48.003Z,55.86
2018-09-12T20:18:00.279Z,55.75
2018-09-12T20:20:12.565Z,54.85
2018-09-12T20:22:24.846Z,55.23
2018-09-12T20:24:37.141Z,55.55
2018-09-12T20:26:49.432Z,55.85
2018-09-12T20:29:01.657Z,56.71
2018-09-12T20:31:13.905Z,57.04
2018-09-12T20:33:26.134Z,56.40
2018-09-12T20:35:38.483Z,56.82
2018-09-12T20:37:50.682Z,56.75
2018-09-12T20:40:02.977Z,56.76
2018-09-12T20:42:15.187Z,56.65
2018-09-12T20:44:27.499Z,55.87
2018-09-12T20:46:39.780Z,55.69
2018-09-12T20:48:52.063Z,57.38
2018-09-12T20:51:04.312Z,56.91
2018-09-12T20:53:16.715Z,56.12
2018-09-12T20:55:28.919Z,54.55
2018-09-12T20:57:41.143Z,54.88
2018-09-12T20:59:53.367Z,54.51
2018-09-12T21:02:05.664Z,54.88
2018-09-12T21:04:17.876Z,55.96
2018-09-12T21:06:30.159Z,57.28
2018-09-12T21:08:42.379Z,58.74
2018-09-12T21:10:54.658Z,59.25
2018-09-12T21:13:06.834Z,61.57
2018-09-12T21:15:19.039Z,62.98
2018-09-12T21:17:31.259Z,65.17
2018-09-12T21:19:43.495Z,66.83
2018-09-12T21:21:55.704Z,68.19
2018-09-12T21:24:07.979Z,70.25
2018-09-12T21:26:20.238Z,71.51
2018-09-12T21:28:32.503Z,71.28
2018-09-12T21:30:44.768Z,72.18
2018-09-12T21:32:56.999Z,73.68
2018-09-12T21:35:09.247Z,73.94
2018-09-12T21:37:23.170Z,74.66
2018-09-12T21:39:35.410Z,74.46
2018-09-12T21:41:47.605Z,74.40
2018-09-12T21:43:59.871Z,75.11
2018-09-12T21:46:12.040Z,75.07
2018-09-12T21:48:24.243Z,74.94
2018-09-12T21:50:36.481Z,75.43
2018-09-12T21:52:48.687Z,75.33
2018-09-12T21:55:00.968Z,74.25
2018-09-12T21:57:13.198Z,74.66
2018-09-12T21:59:25.436Z,75.83
2018-09-12T22:01:37.642Z,76.81
2018-09-12T22:03:49.860Z,76.92
2018-09-12T22:06:02.118Z,76.24
2018-09-12T22:08:14.344Z,76.73
2018-09-12T22:10:26.659Z,77.34
2018-09-12T22:12:38.916Z,76.86
2018-09-12T22:14:51.112Z,76.81
2018-09-12T22:17:03.339Z,78.45
2018-09-12T22:19:15.562Z,78.29
2018-09-12T22:21:27.875Z,78.25
2018-09-12T22:23:40.134Z,77.92
2018-09-12T22:25:52.378Z,79.27
2018-09-12T22:28:04.579Z,79.53
2018-09-12T22:30:16.783Z,79.26
2018-09-12T22:32:29.011Z,79.63
2018-09-12T22:34:41.269Z,78.37
2018-09-12T22:36:53.482Z,78.63
2018-09-12T22:39:07.616Z,78.25
2018-09-12T22:41:19.847Z,77.83
2018-09-12T22:43:32.134Z,77.90
2018-09-12T22:45:44.330Z,78.24
2018-09-12T22:47:56.557Z,78.92
2018-09-12T22:50:08.766Z,78.19
2018-09-12T22:52:21.018Z,78.81
2018-09-12T22:54:33.263Z,77.98
2018-09-12T22:56:45.409Z,78.10
2018-09-12T22:58:57.615Z,77.92
2018-09-12T23:01:09.775Z,78.44
2018-09-12T23:03:21.980Z,78.54
2018-09-12T23:05:34.202Z,78.35
2018-09-12T23:07:46.463Z,77.91
2018-09-12T23:09:58.648Z,79.51
2018-09-12T23:12:10.850Z,78.43
2018-09-12T23:14:23.111Z,78.55
2018-09-12T23:16:35.667Z,78.00
2018-09-12T23:18:47.856Z,78.10
2018-09-12T23:21:00.083Z,78.59
2018-09-12T23:23:12.356Z,77.64
2018-09-12T23:25:24.523Z,77.52
2018-09-12T23:27:36.719Z,77.47
2018-09-12T23:29:48.945Z,77.70
2018-09-12T23:32:01.165Z,77.92
2018-09-12T23:34:13.378Z,78.28
2018-09-12T23:36:25.590Z,78.02
2018-09-12T23:38:37.840Z,78.94
2018-09-12T23:40:50.030Z,78.89
2018-09-12T23:43:02.275Z,79.30
2018-09-12T23:45:14.515Z,79.23
2018-09-12T23:47:26.711Z,78.94
2018-09-12T23:49:38.909Z,79.86
2018-09-12T23:51:51.071Z,79.03
2018-09-12T23:54:03.306Z,78.73
2018-09-12T23:56:15.483Z,79.24
2018-09-12T23:58:27.686Z,78.96
